createdAt,value
2022-08-29T00:00:59.673Z,980.74
2022-08-29T00:01:59.617Z,980.80
2022-08-29T00:02:59.523Z,980.78
2022-08-29T00:03:59.487Z,980.78
2022-08-29T00:04:59.376Z,980.79
2022-08-29T00:05:59.297Z,980.81
2022-08-29T00:06:59.230Z,980.84
2022-08-29T00:07:59.156Z,980.85
2022-08-29T00:08:59.076Z,980.87
2022-08-29T00:09:59.004Z,980.87
2022-08-29T00:10:58.930Z,980.85
2022-08-29T00:11:58.862Z,980.84
2022-08-29T00:12:58.783Z,980.87
2022-08-29T00:13:58.706Z,980.87
2022-08-29T00:14:58.627Z,980.86
2022-08-29T00:15:58.555Z,980.88
2022-08-29T00:16:58.526Z,980.86
2022-08-29T00:17:58.405Z,980.88
2022-08-29T00:18:58.332Z,980.86
2022-08-29T00:19:58.266Z,980.84
2022-08-29T00:20:58.182Z,980.88
2022-08-29T00:21:58.113Z,980.85
2022-08-29T00:22:58.429Z,980.83
2022-08-29T00:23:57.963Z,980.82
2022-08-29T00:24:57.887Z,980.84
2022-08-29T00:25:57.810Z,980.82
2022-08-29T00:26:57.730Z,980.81
2022-08-29T00:27:57.661Z,980.78
2022-08-29T00:28:57.591Z,980.80
2022-08-29T00:29:57.520Z,980.78
2022-08-29T00:30:57.437Z,980.76
2022-08-29T00:31:57.445Z,980.77
2022-08-29T00:32:57.314Z,980.76
2022-08-29T00:33:57.215Z,980.77
2022-08-29T00:34:57.139Z,980.78
2022-08-29T00:35:57.074Z,980.72
2022-08-29T00:36:56.993Z,980.74
2022-08-29T00:37:56.919Z,980.75
2022-08-29T00:38:56.840Z,980.71
2022-08-29T00:39:56.808Z,980.71
2022-08-29T00:40:56.695Z,980.71
2022-08-29T00:41:56.617Z,980.69
2022-08-29T00:42:56.541Z,980.72
2022-08-29T00:43:56.471Z,980.73
2022-08-29T00:44:56.400Z,980.71
2022-08-29T00:45:56.333Z,980.72
2022-08-29T00:46:56.247Z,980.73
2022-08-29T00:47:56.173Z,980.75
2022-08-29T00:48:56.100Z,980.74
2022-08-29T00:49:56.024Z,980.76
2022-08-29T00:50:55.948Z,980.77
2022-08-29T00:51:55.876Z,980.79
2022-08-29T00:52:55.799Z,980.74
2022-08-29T00:53:55.728Z,980.76
2022-08-29T00:54:55.653Z,980.78
2022-08-29T00:55:55.581Z,980.79
2022-08-29T00:56:55.505Z,980.79
2022-08-29T00:57:55.428Z,980.81
2022-08-29T00:58:55.354Z,980.77
2022-08-29T00:59:55.285Z,980.77
2022-08-29T01:00:55.270Z,980.79
2022-08-29T01:01:55.178Z,980.81
2022-08-29T01:02:55.056Z,980.80
2022-08-29T01:03:54.985Z,980.79
2022-08-29T01:04:54.912Z,980.83
2022-08-29T01:05:54.838Z,980.81
2022-08-29T01:06:54.763Z,980.79
2022-08-29T01:07:54.684Z,980.80
2022-08-29T01:08:57.404Z,980.79
2022-08-29T01:09:54.536Z,980.81
2022-08-29T01:10:54.462Z,980.79
2022-08-29T01:11:54.395Z,980.79
2022-08-29T01:12:54.309Z,980.80
2022-08-29T01:13:54.234Z,980.81
2022-08-29T01:14:54.161Z,980.82
2022-08-29T01:15:54.091Z,980.80
2022-08-29T01:16:54.018Z,980.81
2022-08-29T01:17:53.937Z,980.83
2022-08-29T01:18:53.867Z,980.87
2022-08-29T01:19:53.789Z,980.80
2022-08-29T01:20:53.719Z,980.82
2022-08-29T01:21:53.639Z,980.85
2022-08-29T01:22:53.568Z,980.82
2022-08-29T01:23:53.488Z,980.84
2022-08-29T01:24:53.417Z,980.88
2022-08-29T01:25:53.345Z,980.85
2022-08-29T01:26:53.264Z,980.87
2022-08-29T01:27:53.207Z,980.83
2022-08-29T01:28:53.514Z,980.83
2022-08-29T01:29:53.043Z,980.84
2022-08-29T01:30:52.972Z,980.82
2022-08-29T01:31:56.875Z,980.80
2022-08-29T01:32:52.819Z,980.80
2022-08-29T01:33:52.748Z,980.84
2022-08-29T01:34:52.671Z,980.80
2022-08-29T01:35:52.592Z,980.82
2022-08-29T01:36:52.523Z,980.80
2022-08-29T01:37:52.442Z,980.82
2022-08-29T01:38:52.373Z,980.83
2022-08-29T01:39:52.293Z,980.82
2022-08-29T01:40:52.224Z,980.85
2022-08-29T01:41:52.147Z,980.88
2022-08-29T01:42:52.072Z,980.86
2022-08-29T01:43:51.999Z,980.84
2022-08-29T01:44:52.328Z,980.84
2022-08-29T01:45:51.859Z,980.84
2022-08-29T01:46:51.775Z,980.81
2022-08-29T01:47:51.696Z,980.84
2022-08-29T01:48:51.623Z,980.80
2022-08-29T01:49:51.549Z,980.78
2022-08-29T01:50:52.022Z,980.80
2022-08-29T01:51:51.402Z,980.81
2022-08-29T01:52:51.320Z,980.79
2022-08-29T01:53:51.246Z,980.79
2022-08-29T01:54:51.177Z,980.81
2022-08-29T01:55:51.097Z,980.81
2022-08-29T01:56:51.025Z,980.80
2022-08-29T01:57:50.948Z,980.80
2022-08-29T01:58:50.875Z,980.80
2022-08-29T01:59:50.800Z,980.80
2022-08-29T02:00:50.777Z,980.80
2022-08-29T02:01:50.682Z,980.78
2022-08-29T02:02:50.572Z,980.77
2022-08-29T02:03:50.501Z,980.74
2022-08-29T02:04:50.424Z,980.78
2022-08-29T02:05:50.355Z,980.75
2022-08-29T02:06:50.280Z,980.72
2022-08-29T02:07:50.201Z,980.74
2022-08-29T02:08:50.126Z,980.72
2022-08-29T02:09:50.053Z,980.71
2022-08-29T02:10:49.982Z,980.73
2022-08-29T02:11:49.901Z,980.73
2022-08-29T02:12:49.829Z,980.70
2022-08-29T02:13:49.752Z,980.72
2022-08-29T02:14:49.674Z,980.73
2022-08-29T02:15:49.603Z,980.69
2022-08-29T02:16:49.534Z,980.69
2022-08-29T02:17:49.461Z,980.70
2022-08-29T02:18:49.383Z,980.66
2022-08-29T02:19:49.303Z,980.65
2022-08-29T02:20:49.230Z,980.65
2022-08-29T02:21:49.154Z,980.66
2022-08-29T02:22:49.081Z,980.67
2022-08-29T02:23:49.010Z,980.66
2022-08-29T02:24:48.930Z,980.66
2022-08-29T02:25:48.861Z,980.69
2022-08-29T02:26:48.797Z,980.63
2022-08-29T02:27:48.704Z,980.65
2022-08-29T02:28:48.629Z,980.63
2022-08-29T02:29:48.553Z,980.61
2022-08-29T02:30:48.489Z,980.60
2022-08-29T02:31:48.484Z,980.58
2022-08-29T02:32:48.336Z,980.61
2022-08-29T02:33:48.254Z,980.57
2022-08-29T02:34:48.487Z,980.59
2022-08-29T02:35:48.108Z,980.60
2022-08-29T02:36:49.147Z,980.61
2022-08-29T02:37:47.954Z,980.63
2022-08-29T02:38:47.882Z,980.62
2022-08-29T02:39:47.808Z,980.64
2022-08-29T02:40:47.780Z,980.63
2022-08-29T02:41:47.661Z,980.63
2022-08-29T02:42:47.586Z,980.63
2022-08-29T02:43:47.513Z,980.64
2022-08-29T02:44:47.430Z,980.63
2022-08-29T02:45:47.362Z,980.57
2022-08-29T02:46:47.309Z,980.56
2022-08-29T02:47:47.204Z,980.62
2022-08-29T02:48:47.641Z,980.58
2022-08-29T02:49:47.054Z,980.64
2022-08-29T02:50:46.989Z,980.60
2022-08-29T02:51:46.907Z,980.63
2022-08-29T02:52:46.875Z,980.64
2022-08-29T02:53:46.763Z,980.63
2022-08-29T02:54:46.680Z,980.63
2022-08-29T02:55:46.607Z,980.61
2022-08-29T02:56:46.538Z,980.62
2022-08-29T02:57:46.459Z,980.66
2022-08-29T02:58:46.381Z,980.69
2022-08-29T02:59:46.309Z,980.65
2022-08-29T03:00:46.257Z,980.67
2022-08-29T03:01:46.205Z,980.65
2022-08-29T03:02:46.085Z,980.68
2022-08-29T03:03:46.011Z,980.71
2022-08-29T03:04:45.932Z,980.70
2022-08-29T03:05:45.854Z,980.70
2022-08-29T03:06:45.780Z,980.68
2022-08-29T03:07:50.315Z,980.67
2022-08-29T03:08:45.636Z,980.69
2022-08-29T03:09:45.552Z,980.70
2022-08-29T03:10:45.491Z,980.69
2022-08-29T03:11:45.409Z,980.69
2022-08-29T03:12:45.335Z,980.69
2022-08-29T03:13:45.260Z,980.70
2022-08-29T03:14:45.182Z,980.67
2022-08-29T03:15:45.141Z,980.72
2022-08-29T03:16:45.033Z,980.74
2022-08-29T03:17:44.954Z,980.77
2022-08-29T03:18:44.879Z,980.79
2022-08-29T03:19:44.808Z,980.77
2022-08-29T03:20:44.731Z,980.81
2022-08-29T03:21:44.655Z,980.81
2022-08-29T03:22:44.681Z,980.79
2022-08-29T03:23:44.512Z,980.77
2022-08-29T03:24:44.428Z,980.77
2022-08-29T03:25:44.356Z,980.76
2022-08-29T03:26:44.277Z,980.74
2022-08-29T03:27:44.210Z,980.75
2022-08-29T03:28:44.131Z,980.77
2022-08-29T03:29:44.058Z,980.78
2022-08-29T03:30:43.979Z,980.78
2022-08-29T03:31:43.964Z,980.80
2022-08-29T03:32:43.829Z,980.83
2022-08-29T03:33:43.761Z,980.82
2022-08-29T03:34:43.681Z,980.81
2022-08-29T03:35:43.602Z,980.81
2022-08-29T03:36:43.533Z,980.80
2022-08-29T03:37:43.449Z,980.81
2022-08-29T03:38:43.405Z,980.82
2022-08-29T03:39:43.304Z,980.78
2022-08-29T03:40:43.268Z,980.78
2022-08-29T03:41:43.155Z,980.79
2022-08-29T03:42:43.077Z,980.79
2022-08-29T03:43:43.002Z,980.80
2022-08-29T03:44:42.926Z,980.82
2022-08-29T03:45:42.846Z,980.87
2022-08-29T03:46:42.822Z,980.84
2022-08-29T03:47:42.695Z,980.87
2022-08-29T03:48:42.628Z,980.87
2022-08-29T03:49:42.544Z,980.88
2022-08-29T03:50:42.470Z,980.89
2022-08-29T03:51:42.397Z,980.85
2022-08-29T03:52:42.318Z,980.90
2022-08-29T03:53:42.247Z,980.87
2022-08-29T03:54:42.167Z,980.87
2022-08-29T03:55:42.093Z,980.91
2022-08-29T03:56:42.025Z,980.92
2022-08-29T03:57:41.940Z,980.93
2022-08-29T03:58:41.864Z,980.94
2022-08-29T03:59:41.794Z,980.92
2022-08-29T04:00:41.718Z,980.93
2022-08-29T04:01:41.681Z,980.95
2022-08-29T04:02:41.612Z,980.95
2022-08-29T04:03:41.490Z,980.98
2022-08-29T04:04:41.415Z,980.99
2022-08-29T04:05:41.343Z,980.99
2022-08-29T04:06:41.301Z,981.01
2022-08-29T04:07:41.193Z,981.01
2022-08-29T04:08:41.119Z,981.03
2022-08-29T04:09:41.039Z,981.00
2022-08-29T04:10:40.969Z,981.01
2022-08-29T04:11:40.886Z,981.00
2022-08-29T04:12:40.822Z,981.02
2022-08-29T04:13:40.732Z,980.99
2022-08-29T04:14:40.665Z,981.01
2022-08-29T04:15:40.646Z,980.99
2022-08-29T04:16:40.506Z,980.99
2022-08-29T04:17:52.806Z,980.99
2022-08-29T04:18:40.359Z,981.04
2022-08-29T04:19:40.285Z,981.04
2022-08-29T04:20:40.201Z,981.06
2022-08-29T04:21:40.141Z,981.09
2022-08-29T04:22:40.058Z,981.09
2022-08-29T04:23:39.979Z,981.13
2022-08-29T04:24:39.918Z,981.15
2022-08-29T04:25:39.828Z,981.10
2022-08-29T04:26:39.754Z,981.15
2022-08-29T04:27:39.678Z,981.12
2022-08-29T04:28:39.603Z,981.12
2022-08-29T04:29:39.539Z,981.12
2022-08-29T04:30:39.446Z,981.14
2022-08-29T04:31:39.560Z,981.15
2022-08-29T04:32:39.297Z,981.13
2022-08-29T04:33:39.237Z,981.16
2022-08-29T04:34:39.143Z,981.13
2022-08-29T04:35:39.069Z,981.16
2022-08-29T04:36:38.991Z,981.18
2022-08-29T04:37:38.914Z,981.17
2022-08-29T04:38:38.846Z,981.20
2022-08-29T04:39:38.768Z,981.19
2022-08-29T04:40:38.756Z,981.19
2022-08-29T04:41:38.616Z,981.22
2022-08-29T04:42:38.541Z,981.23
2022-08-29T04:43:38.462Z,981.22
2022-08-29T04:44:38.387Z,981.24
2022-08-29T04:45:38.309Z,981.22
2022-08-29T04:46:38.274Z,981.22
2022-08-29T04:47:38.164Z,981.21
2022-08-29T04:48:38.085Z,981.21
2022-08-29T04:49:38.016Z,981.23
2022-08-29T04:50:37.928Z,981.23
2022-08-29T04:51:37.854Z,981.23
2022-08-29T04:52:37.783Z,981.23
2022-08-29T04:53:37.731Z,981.23
2022-08-29T04:54:37.633Z,981.25
2022-08-29T04:55:37.555Z,981.26
2022-08-29T04:56:37.481Z,981.29
2022-08-29T04:57:37.397Z,981.23
2022-08-29T04:58:37.323Z,981.28
2022-08-29T04:59:37.248Z,981.29
2022-08-29T05:00:37.174Z,981.27
2022-08-29T05:01:37.125Z,981.26
2022-08-29T05:02:37.038Z,981.28
2022-08-29T05:03:36.945Z,981.30
2022-08-29T05:04:36.868Z,981.28
2022-08-29T05:05:36.805Z,981.29
2022-08-29T05:06:36.714Z,981.27
2022-08-29T05:07:38.434Z,981.31
2022-08-29T05:08:36.571Z,981.28
2022-08-29T05:09:36.490Z,981.30
2022-08-29T05:10:36.419Z,981.30
2022-08-29T05:11:36.341Z,981.32
2022-08-29T05:12:36.265Z,981.31
2022-08-29T05:13:36.186Z,981.31
2022-08-29T05:14:36.111Z,981.31
2022-08-29T05:15:36.071Z,981.37
2022-08-29T05:16:35.952Z,981.36
2022-08-29T05:17:35.879Z,981.36
2022-08-29T05:18:35.852Z,981.40
2022-08-29T05:19:35.729Z,981.36
2022-08-29T05:20:35.651Z,981.38
2022-08-29T05:21:35.853Z,981.39
2022-08-29T05:22:35.514Z,981.40
2022-08-29T05:23:35.433Z,981.41
2022-08-29T05:24:35.351Z,981.39
2022-08-29T05:25:35.269Z,981.39
2022-08-29T05:26:35.204Z,981.42
2022-08-29T05:27:35.118Z,981.41
2022-08-29T05:28:35.046Z,981.46
2022-08-29T05:29:34.969Z,981.41
2022-08-29T05:30:35.549Z,981.45
2022-08-29T05:31:34.861Z,981.40
2022-08-29T05:32:34.741Z,981.39
2022-08-29T05:33:34.661Z,981.41
2022-08-29T05:34:35.295Z,981.42
2022-08-29T05:35:34.513Z,981.41
2022-08-29T05:36:34.432Z,981.41
2022-08-29T05:37:34.367Z,981.42
2022-08-29T05:38:34.283Z,981.47
2022-08-29T05:39:34.210Z,981.49
2022-08-29T05:40:34.230Z,981.53
2022-08-29T05:41:38.438Z,981.51
2022-08-29T05:42:33.988Z,981.51
2022-08-29T05:43:33.909Z,981.47
2022-08-29T05:44:35.515Z,981.52
2022-08-29T05:45:33.752Z,981.50
2022-08-29T05:46:33.753Z,981.50
2022-08-29T05:47:33.598Z,981.51
2022-08-29T05:48:33.522Z,981.53
2022-08-29T05:49:33.451Z,981.48
2022-08-29T05:50:33.372Z,981.46
2022-08-29T05:51:38.821Z,981.47
2022-08-29T05:52:33.219Z,981.46
2022-08-29T05:53:33.148Z,981.49
2022-08-29T05:54:33.072Z,981.53
2022-08-29T05:55:32.988Z,981.50
2022-08-29T05:56:32.917Z,981.52
2022-08-29T05:57:32.846Z,981.50
2022-08-29T05:58:32.767Z,981.50
2022-08-29T05:59:32.687Z,981.52
2022-08-29T06:00:32.612Z,981.53
2022-08-29T06:01:32.678Z,981.53
2022-08-29T06:02:32.544Z,981.53
2022-08-29T06:03:32.522Z,981.58
2022-08-29T06:04:32.308Z,981.60
2022-08-29T06:05:32.236Z,981.60
2022-08-29T06:06:32.155Z,981.64
2022-08-29T06:07:32.084Z,981.63
2022-08-29T06:08:32.002Z,981.62
2022-08-29T06:09:31.929Z,981.62
2022-08-29T06:10:31.858Z,981.61
2022-08-29T06:11:31.775Z,981.61
2022-08-29T06:12:31.704Z,981.64
2022-08-29T06:13:31.627Z,981.62
2022-08-29T06:14:31.556Z,981.66
2022-08-29T06:15:31.517Z,981.66
2022-08-29T06:16:31.400Z,981.66
2022-08-29T06:17:31.324Z,981.63
2022-08-29T06:18:35.437Z,981.66
2022-08-29T06:19:31.172Z,981.61
2022-08-29T06:20:31.090Z,981.66
2022-08-29T06:21:31.018Z,981.69
2022-08-29T06:22:30.944Z,981.69
2022-08-29T06:23:30.869Z,981.70
2022-08-29T06:24:30.790Z,981.73
2022-08-29T06:25:39.242Z,981.77
2022-08-29T06:26:30.638Z,981.75
2022-08-29T06:27:30.562Z,981.79
2022-08-29T06:28:30.484Z,981.76
2022-08-29T06:29:30.413Z,981.75
2022-08-29T06:30:30.337Z,981.77
2022-08-29T06:31:30.336Z,981.78
2022-08-29T06:32:30.186Z,981.76
2022-08-29T06:33:30.106Z,981.76
2022-08-29T06:34:30.036Z,981.73
2022-08-29T06:35:29.961Z,981.75
2022-08-29T06:36:29.884Z,981.75
2022-08-29T06:37:29.802Z,981.74
2022-08-29T06:38:29.731Z,981.76
2022-08-29T06:39:29.654Z,981.73
2022-08-29T06:40:29.628Z,981.74
2022-08-29T06:41:29.505Z,981.70
2022-08-29T06:42:29.430Z,981.69
2022-08-29T06:43:29.350Z,981.67
2022-08-29T06:44:30.611Z,981.67
2022-08-29T06:45:29.198Z,981.72
2022-08-29T06:46:29.164Z,981.71
2022-08-29T06:47:29.049Z,981.71
2022-08-29T06:48:29.785Z,981.73
2022-08-29T06:49:28.909Z,981.76
2022-08-29T06:50:28.824Z,981.75
2022-08-29T06:51:28.748Z,981.77
2022-08-29T06:52:28.669Z,981.77
2022-08-29T06:53:32.124Z,981.78
2022-08-29T06:54:28.772Z,981.83
2022-08-29T06:55:28.444Z,981.80
2022-08-29T06:56:28.374Z,981.84
2022-08-29T06:57:28.296Z,981.83
2022-08-29T06:58:28.215Z,981.83
2022-08-29T06:59:28.144Z,981.82
2022-08-29T07:00:28.066Z,981.84
2022-08-29T07:01:28.043Z,981.87
2022-08-29T07:02:27.995Z,981.86
2022-08-29T07:03:27.840Z,981.87
2022-08-29T07:04:27.764Z,981.88
2022-08-29T07:05:27.696Z,981.87
2022-08-29T07:06:27.612Z,981.91
2022-08-29T07:07:27.539Z,981.91
2022-08-29T07:08:27.485Z,981.91
2022-08-29T07:09:27.389Z,981.89
2022-08-29T07:10:27.313Z,981.90
2022-08-29T07:11:27.247Z,981.88
2022-08-29T07:12:27.189Z,981.86
2022-08-29T07:13:27.084Z,981.88
2022-08-29T07:14:27.012Z,981.92
2022-08-29T07:15:27.006Z,981.88
2022-08-29T07:16:26.861Z,981.90
2022-08-29T07:17:26.789Z,981.91
2022-08-29T07:18:26.716Z,981.87
2022-08-29T07:19:26.639Z,981.87
2022-08-29T07:20:26.562Z,981.93
2022-08-29T07:21:26.487Z,981.88
2022-08-29T07:22:26.408Z,981.89
2022-08-29T07:23:26.335Z,981.91
2022-08-29T07:24:26.261Z,981.90
2022-08-29T07:25:26.189Z,981.89
2022-08-29T07:26:26.111Z,981.87
2022-08-29T07:27:26.062Z,981.89
2022-08-29T07:28:25.962Z,981.85
2022-08-29T07:29:25.882Z,981.87
2022-08-29T07:30:25.820Z,981.91
2022-08-29T07:31:25.744Z,981.91
2022-08-29T07:32:26.116Z,981.91
2022-08-29T07:33:25.586Z,981.91
2022-08-29T07:34:25.514Z,981.94
2022-08-29T07:35:30.310Z,981.93
2022-08-29T07:36:25.362Z,981.99
2022-08-29T07:37:25.278Z,981.96
2022-08-29T07:38:25.208Z,981.99
2022-08-29T07:39:25.136Z,981.95
2022-08-29T07:40:25.125Z,981.97
2022-08-29T07:41:24.984Z,981.98
2022-08-29T07:42:24.912Z,981.96
2022-08-29T07:43:27.821Z,981.93
2022-08-29T07:44:24.786Z,981.94
2022-08-29T07:45:24.683Z,981.94
2022-08-29T07:46:24.625Z,981.94
2022-08-29T07:47:24.532Z,981.93
2022-08-29T07:48:24.799Z,981.95
2022-08-29T07:49:32.438Z,981.95
2022-08-29T07:50:24.309Z,981.95
2022-08-29T07:51:24.231Z,981.91
2022-08-29T07:52:24.170Z,981.90
2022-08-29T07:53:24.086Z,981.97
2022-08-29T07:54:24.010Z,981.93
2022-08-29T07:55:23.936Z,981.93
2022-08-29T07:56:24.608Z,981.95
2022-08-29T07:57:23.780Z,981.90
2022-08-29T07:58:23.713Z,981.91
2022-08-29T07:59:23.633Z,981.93
2022-08-29T08:00:23.560Z,981.93
2022-08-29T08:01:23.629Z,981.88
2022-08-29T08:02:23.575Z,981.91
2022-08-29T08:03:23.340Z,981.92
2022-08-29T08:04:23.262Z,981.93
2022-08-29T08:05:23.186Z,981.95
2022-08-29T08:06:23.117Z,981.96
2022-08-29T08:07:23.037Z,982.00
2022-08-29T08:08:22.964Z,981.99
2022-08-29T08:09:22.885Z,981.99
2022-08-29T08:10:22.816Z,982.03
2022-08-29T08:11:22.740Z,982.04
2022-08-29T08:12:22.671Z,982.03
2022-08-29T08:13:22.641Z,982.02
2022-08-29T08:14:22.516Z,982.02
2022-08-29T08:15:22.443Z,982.03
2022-08-29T08:16:22.405Z,982.03
2022-08-29T08:17:22.294Z,982.05
2022-08-29T08:18:22.214Z,982.04
2022-08-29T08:19:22.138Z,982.06
2022-08-29T08:20:22.068Z,982.07
2022-08-29T08:21:21.989Z,982.10
2022-08-29T08:22:21.914Z,982.10
2022-08-29T08:23:21.842Z,982.10
2022-08-29T08:24:21.766Z,982.08
2022-08-29T08:25:24.398Z,982.08
2022-08-29T08:26:21.618Z,982.09
2022-08-29T08:27:21.547Z,982.07
2022-08-29T08:28:21.472Z,982.07
2022-08-29T08:29:21.393Z,982.10
2022-08-29T08:30:21.322Z,982.10
2022-08-29T08:31:21.274Z,982.13
2022-08-29T08:32:21.178Z,982.11
2022-08-29T08:33:21.116Z,982.11
2022-08-29T08:34:21.483Z,982.13
2022-08-29T08:35:22.978Z,982.13
2022-08-29T08:36:20.871Z,982.15
2022-08-29T08:37:27.963Z,982.19
2022-08-29T08:38:20.724Z,982.22
2022-08-29T08:39:20.658Z,982.22
2022-08-29T08:40:20.727Z,982.22
2022-08-29T08:41:23.958Z,982.24
2022-08-29T08:42:24.694Z,982.23
2022-08-29T08:43:26.648Z,982.22
2022-08-29T08:44:20.282Z,982.22
2022-08-29T08:45:20.215Z,982.22
2022-08-29T08:46:20.165Z,982.23
2022-08-29T08:47:20.054Z,982.20
2022-08-29T08:48:19.981Z,982.21
2022-08-29T08:49:19.908Z,982.23
2022-08-29T08:50:19.986Z,982.24
2022-08-29T08:51:19.774Z,982.23
2022-08-29T08:52:19.692Z,982.30
2022-08-29T08:53:19.615Z,982.28
2022-08-29T08:54:19.536Z,982.25
2022-08-29T08:55:19.462Z,982.27
2022-08-29T08:56:19.403Z,982.26
2022-08-29T08:57:19.317Z,982.25
2022-08-29T08:58:19.240Z,982.26
2022-08-29T08:59:19.170Z,982.25
2022-08-29T09:00:19.095Z,982.24
2022-08-29T09:01:19.091Z,982.24
2022-08-29T09:02:19.001Z,982.26
2022-08-29T09:03:18.876Z,982.26
2022-08-29T09:04:18.798Z,982.25
2022-08-29T09:05:18.723Z,982.24
2022-08-29T09:06:18.660Z,982.22
2022-08-29T09:07:18.584Z,982.20
2022-08-29T09:08:18.515Z,982.22
2022-08-29T09:09:18.426Z,982.19
2022-08-29T09:10:18.365Z,982.21
2022-08-29T09:11:18.283Z,982.21
2022-08-29T09:12:18.212Z,982.23
2022-08-29T09:13:18.136Z,982.20
2022-08-29T09:14:18.060Z,982.24
2022-08-29T09:15:17.987Z,982.23
2022-08-29T09:16:17.962Z,982.18
2022-08-29T09:17:17.839Z,982.19
2022-08-29T09:18:21.822Z,982.19
2022-08-29T09:19:17.717Z,982.20
2022-08-29T09:20:17.627Z,982.22
2022-08-29T09:21:39.411Z,982.21
2022-08-29T09:22:17.472Z,982.26
2022-08-29T09:23:17.412Z,982.25
2022-08-29T09:24:17.320Z,982.25
2022-08-29T09:25:17.254Z,982.24
2022-08-29T09:26:17.183Z,982.24
2022-08-29T09:27:17.101Z,982.22
2022-08-29T09:28:17.040Z,982.22
2022-08-29T09:29:16.954Z,982.21
2022-08-29T09:30:16.878Z,982.20
2022-08-29T09:31:16.900Z,982.23
2022-08-29T09:32:22.137Z,982.20
2022-08-29T09:33:16.980Z,982.24
2022-08-29T09:34:16.585Z,982.20
2022-08-29T09:35:16.512Z,982.16
2022-08-29T09:36:16.441Z,982.16
2022-08-29T09:37:16.367Z,982.16
2022-08-29T09:38:16.290Z,982.15
2022-08-29T09:39:16.221Z,982.13
2022-08-29T09:40:17.725Z,982.15
2022-08-29T09:41:16.071Z,982.16
2022-08-29T09:42:16.013Z,982.15
2022-08-29T09:43:16.161Z,982.15
2022-08-29T09:44:15.856Z,982.16
2022-08-29T09:45:15.788Z,982.14
2022-08-29T09:46:15.739Z,982.18
2022-08-29T09:47:15.640Z,982.19
2022-08-29T09:48:15.557Z,982.17
2022-08-29T09:49:15.485Z,982.14
2022-08-29T09:50:15.409Z,982.11
2022-08-29T09:51:15.335Z,982.08
2022-08-29T09:52:15.262Z,982.13
2022-08-29T09:53:24.962Z,982.09
2022-08-29T09:54:15.115Z,982.09
2022-08-29T09:55:15.043Z,982.07
2022-08-29T09:56:14.974Z,982.11
2022-08-29T09:57:14.901Z,982.12
2022-08-29T09:58:14.834Z,982.10
2022-08-29T09:59:14.751Z,982.12
2022-08-29T10:00:14.678Z,982.08
2022-08-29T10:01:14.622Z,982.07
2022-08-29T10:02:14.594Z,982.10
2022-08-29T10:03:14.598Z,982.10
2022-08-29T10:04:14.387Z,982.08
2022-08-29T10:05:14.311Z,982.13
2022-08-29T10:06:14.233Z,982.08
2022-08-29T10:07:14.162Z,982.10
2022-08-29T10:08:14.087Z,982.08
2022-08-29T10:09:14.013Z,982.05
2022-08-29T10:10:13.945Z,982.10
2022-08-29T10:11:13.865Z,982.09
2022-08-29T10:12:13.792Z,982.10
2022-08-29T10:13:13.729Z,982.06
2022-08-29T10:14:14.622Z,982.11
2022-08-29T10:15:27.992Z,982.06
2022-08-29T10:16:13.567Z,982.06
2022-08-29T10:17:13.427Z,982.03
2022-08-29T10:18:13.353Z,982.02
2022-08-29T10:19:13.283Z,982.01
2022-08-29T10:20:13.217Z,982.01
2022-08-29T10:21:13.138Z,982.03
2022-08-29T10:22:13.146Z,982.02
2022-08-29T10:23:12.993Z,982.02
2022-08-29T10:24:15.869Z,982.01
2022-08-29T10:25:12.843Z,982.03
2022-08-29T10:26:12.776Z,982.01
2022-08-29T10:27:12.705Z,981.99
2022-08-29T10:28:12.629Z,982.03
2022-08-29T10:29:12.556Z,981.99
2022-08-29T10:30:12.478Z,982.00
2022-08-29T10:31:12.470Z,981.99
2022-08-29T10:32:12.330Z,981.99
2022-08-29T10:33:12.316Z,981.97
2022-08-29T10:34:12.185Z,981.97
2022-08-29T10:35:12.118Z,981.98
2022-08-29T10:36:12.050Z,981.98
2022-08-29T10:37:11.972Z,982.03
2022-08-29T10:38:11.896Z,981.98
2022-08-29T10:39:11.823Z,982.02
2022-08-29T10:40:12.615Z,982.00
2022-08-29T10:41:11.680Z,982.00
2022-08-29T10:42:11.605Z,981.96
2022-08-29T10:43:11.585Z,982.02
2022-08-29T10:44:11.535Z,982.03
2022-08-29T10:45:11.389Z,982.00
2022-08-29T10:46:11.388Z,981.93
2022-08-29T10:47:11.241Z,982.01
2022-08-29T10:48:11.251Z,981.99
2022-08-29T10:49:11.097Z,981.96
2022-08-29T10:50:21.900Z,981.98
2022-08-29T10:51:10.951Z,981.98
2022-08-29T10:52:10.884Z,981.99
2022-08-29T10:53:10.806Z,982.00
2022-08-29T10:54:10.736Z,981.99
2022-08-29T10:55:10.662Z,982.01
2022-08-29T10:56:10.591Z,981.98
2022-08-29T10:57:10.519Z,981.99
2022-08-29T10:58:13.471Z,981.97
2022-08-29T10:59:10.372Z,982.01
2022-08-29T11:00:10.304Z,981.96
2022-08-29T11:01:10.327Z,981.98
2022-08-29T11:02:10.155Z,981.93
2022-08-29T11:03:10.083Z,981.95
2022-08-29T11:04:10.055Z,981.97
2022-08-29T11:05:09.937Z,981.95
2022-08-29T11:06:09.861Z,981.96
2022-08-29T11:07:09.796Z,981.94
2022-08-29T11:08:12.754Z,981.93
2022-08-29T11:09:09.648Z,981.96
2022-08-29T11:10:09.576Z,981.96
2022-08-29T11:11:09.502Z,981.91
2022-08-29T11:12:09.440Z,981.92
2022-08-29T11:13:09.362Z,981.91
2022-08-29T11:14:09.283Z,981.90
2022-08-29T11:15:09.231Z,981.92
2022-08-29T11:16:09.181Z,981.89
2022-08-29T11:17:09.072Z,981.91
2022-08-29T11:18:08.994Z,981.91
2022-08-29T11:19:08.923Z,981.87
2022-08-29T11:20:08.857Z,981.88
2022-08-29T11:21:08.780Z,981.89
2022-08-29T11:22:08.710Z,981.88
2022-08-29T11:23:08.644Z,981.83
2022-08-29T11:24:08.569Z,981.87
2022-08-29T11:25:08.498Z,981.81
2022-08-29T11:26:08.426Z,981.79
2022-08-29T11:27:08.350Z,981.79
2022-08-29T11:28:08.320Z,981.79
2022-08-29T11:29:08.209Z,981.78
2022-08-29T11:30:08.138Z,981.79
2022-08-29T11:31:08.101Z,981.83
2022-08-29T11:32:07.991Z,981.81
2022-08-29T11:33:07.964Z,981.78
2022-08-29T11:34:07.845Z,981.80
2022-08-29T11:35:07.787Z,981.79
2022-08-29T11:36:07.703Z,981.78
2022-08-29T11:37:07.632Z,981.77
2022-08-29T11:38:07.560Z,981.73
2022-08-29T11:39:07.494Z,981.71
2022-08-29T11:40:07.458Z,981.75
2022-08-29T11:42:07.333Z,981.74
2022-08-29T11:43:12.099Z,981.78
2022-08-29T11:44:07.137Z,981.75
2022-08-29T11:45:07.061Z,981.75
2022-08-29T11:46:06.994Z,981.73
2022-08-29T11:47:06.944Z,981.73
2022-08-29T11:48:06.852Z,981.68
2022-08-29T11:49:06.779Z,981.68
2022-08-29T11:50:06.704Z,981.66
2022-08-29T11:51:06.637Z,981.66
2022-08-29T11:52:06.569Z,981.67
2022-08-29T11:53:06.497Z,981.65
2022-08-29T11:54:06.424Z,981.63
2022-08-29T11:55:06.365Z,981.59
2022-08-29T11:56:06.281Z,981.65
2022-08-29T11:57:06.211Z,981.60
2022-08-29T11:58:09.850Z,981.59
2022-08-29T11:59:06.076Z,981.59
2022-08-29T12:00:05.997Z,981.59
2022-08-29T12:01:05.969Z,981.56
2022-08-29T12:02:05.879Z,981.60
2022-08-29T12:03:15.083Z,981.57
2022-08-29T12:04:05.714Z,981.53
2022-08-29T12:05:05.647Z,981.57
2022-08-29T12:06:05.573Z,981.59
2022-08-29T12:07:05.506Z,981.58
2022-08-29T12:08:26.176Z,981.57
2022-08-29T12:09:07.205Z,981.58
2022-08-29T12:10:05.293Z,981.60
2022-08-29T12:11:05.220Z,981.61
2022-08-29T12:12:05.153Z,981.58
2022-08-29T12:13:05.081Z,981.57
2022-08-29T12:14:05.057Z,981.60
2022-08-29T12:15:04.939Z,981.59
2022-08-29T12:16:04.911Z,981.61
2022-08-29T12:17:04.800Z,981.59
2022-08-29T12:18:04.729Z,981.51
2022-08-29T12:19:04.680Z,981.51
2022-08-29T12:20:04.596Z,981.51
2022-08-29T12:21:04.521Z,981.50
2022-08-29T12:22:04.452Z,981.54
2022-08-29T12:23:04.381Z,981.56
2022-08-29T12:24:04.318Z,981.58
2022-08-29T12:25:04.244Z,981.54
2022-08-29T12:26:21.546Z,981.58
2022-08-29T12:27:04.109Z,981.57
2022-08-29T12:28:04.041Z,981.56
2022-08-29T12:29:10.198Z,981.55